Time;durP1;ratioP1;P1;durP2;ratioP2;P2;SDS_P1;SDS_P2;PMS_P1;PMS_P2;Temp;Humidity;BMP_temperature;BMP_pressure;BME280_temperature;BME280_humidity;BME280_pressure;Samples;Min_cycle;Max_cycle;Signal;HPM_P1;HPM_P2
2023/05/05 00:01:07;;;;;;;11.50;5.90;;;11.70;99.90;;;;;;5096674;28;20393;-38
2023/05/05 00:03:36;;;;;;;12.20;5.88;;;11.80;99.90;;;;;;5115963;27;20385;-40
2023/05/05 00:06:03;;;;;;;9.40;6.35;;;11.70;99.90;;;;;;5102810;27;20081;-38
2023/05/05 00:08:28;;;;;;;9.02;6.30;;;11.70;99.90;;;;;;5114973;27;20047;-36
2023/05/05 00:10:55;;;;;;;10.48;6.10;;;11.70;99.90;;;;;;5115474;27;20354;-36
2023/05/05 00:13:21;;;;;;;9.50;6.65;;;11.60;99.90;;;;;;5111906;27;20043;-35
2023/05/05 00:15:48;;;;;;;11.77;6.53;;;11.60;99.90;;;;;;5114735;27;20124;-40
2023/05/05 00:18:15;;;;;;;12.05;7.20;;;11.60;99.90;;;;;;5107831;27;20047;-38
2023/05/05 00:20:41;;;;;;;8.02;5.97;;;11.60;99.90;;;;;;5107054;27;20389;-36
2023/05/05 00:23:07;;;;;;;8.38;6.43;;;11.60;99.90;;;;;;5105387;27;20315;-34
2023/05/05 00:25:33;;;;;;;7.93;6.95;;;11.50;99.90;;;;;;5107313;27;20031;-36
2023/05/05 00:27:59;;;;;;;9.43;7.07;;;11.50;99.90;;;;;;5109275;27;20028;-34
2023/05/05 00:30:26;;;;;;;9.88;7.00;;;11.50;99.90;;;;;;5095971;28;20517;-38
2023/05/05 00:32:53;;;;;;;9.38;6.63;;;11.50;99.90;;;;;;5106844;27;20039;-35
2023/05/05 00:35:18;;;;;;;8.32;6.53;;;11.50;99.90;;;;;;5095350;27;20409;-37
2023/05/05 00:37:44;;;;;;;12.75;7.18;;;11.40;99.90;;;;;;5106835;27;20044;-37
2023/05/05 00:40:11;;;;;;;10.40;7.55;;;11.40;99.90;;;;;;5105405;27;20035;-36
2023/05/05 00:42:45;;;;;;;8.95;6.72;;;11.40;99.90;;;;;;5106331;27;20082;-40
2023/05/05 00:45:15;;;;;;;11.73;7.35;;;11.30;99.90;;;;;;5094828;27;20040;-36
2023/05/05 00:47:43;;;;;;;15.63;7.50;;;11.30;99.90;;;;;;5101193;27;20039;-37
2023/05/05 00:50:10;;;;;;;11.07;7.30;;;11.20;99.90;;;;;;5101321;27;20039;-37
2023/05/05 00:52:37;;;;;;;10.77;7.10;;;11.20;99.90;;;;;;5113248;27;20047;-40
2023/05/05 00:55:07;;;;;;;10.10;8.00;;;11.20;99.90;;;;;;5112621;27;20042;-34
2023/05/05 00:57:34;;;;;;;14.07;7.68;;;11.10;99.90;;;;;;5096473;27;20170;-35
2023/05/05 01:00:01;;;;;;;16.65;7.88;;;11.10;99.90;;;;;;5081428;27;20040;-37
2023/05/05 01:02:27;;;;;;;13.15;7.85;;;11.10;99.90;;;;;;5103935;27;20558;-36
2023/05/05 01:04:54;;;;;;;13.40;8.20;;;11.00;99.90;;;;;;5108140;27;20439;-34
2023/05/05 01:07:39;;;;;;;13.48;8.40;;;11.00;99.90;;;;;;5106190;27;20129;-34
2023/05/05 01:10:30;;;;;;;11.27;7.85;;;11.00;99.90;;;;;;5104929;27;20039;-38
2023/05/05 01:13:13;;;;;;;11.40;8.15;;;11.00;99.90;;;;;;5113321;27;20370;-35
2023/05/05 01:15:54;;;;;;;10.68;7.53;;;11.00;99.90;;;;;;5096274;27;20103;-37
2023/05/05 01:18:44;;;;;;;12.70;8.13;;;10.90;99.90;;;;;;5109755;27;20047;-37
2023/05/05 01:21:18;;;;;;;12.23;7.78;;;10.90;99.90;;;;;;5080073;27;20078;-36
2023/05/05 01:24:06;;;;;;;12.88;7.88;;;10.90;99.90;;;;;;5114125;27;20054;-35
2023/05/05 01:26:58;;;;;;;11.57;7.55;;;10.90;99.90;;;;;;5081837;28;20048;-36
2023/05/05 01:29:29;;;;;;;10.05;6.68;;;10.90;99.90;;;;;;5110021;27;20096;-38
2023/05/05 01:32:03;;;;;;;9.05;6.80;;;10.90;99.90;;;;;;5101737;27;20456;-37
2023/05/05 01:35:01;;;;;;;12.80;7.20;;;11.00;99.90;;;;;;5075924;28;20106;-40
2023/05/05 01:37:35;;;;;;;9.70;7.63;;;11.00;99.90;;;;;;4991282;28;20084;-37
2023/05/05 01:40:11;;;;;;;9.65;7.53;;;11.00;99.90;;;;;;4991244;28;20073;-34
2023/05/05 01:42:41;;;;;;;11.82;7.63;;;11.00;99.90;;;;;;4991406;28;20058;-34
2023/05/05 01:45:10;;;;;;;12.10;7.57;;;11.10;99.90;;;;;;4974609;28;20124;-37
2023/05/05 01:47:38;;;;;;;9.15;6.82;;;11.10;99.90;;;;;;4996254;28;20099;-34
2023/05/05 01:50:06;;;;;;;10.57;8.13;;;11.10;99.90;;;;;;4994982;28;20056;-38
2023/05/05 01:52:34;;;;;;;13.02;7.55;;;11.10;99.90;;;;;;4975044;28;20046;-34
2023/05/05 01:55:02;;;;;;;10.38;7.53;;;11.10;99.90;;;;;;4990706;28;20283;-36
2023/05/05 01:57:30;;;;;;;11.10;7.65;;;11.10;99.90;;;;;;4991659;28;20042;-37
2023/05/05 01:59:58;;;;;;;14.98;8.15;;;11.10;99.90;;;;;;4992140;28;20057;-41
2023/05/05 02:02:25;;;;;;;11.27;8.00;;;11.00;99.90;;;;;;4990125;28;20042;-37
2023/05/05 02:04:53;;;;;;;15.30;8.10;;;11.00;99.90;;;;;;4991533;28;20423;-36
2023/05/05 02:07:21;;;;;;;10.00;7.63;;;11.10;99.90;;;;;;4991895;28;20065;-38
2023/05/05 02:09:47;;;;;;;12.07;8.32;;;11.10;99.90;;;;;;4993041;28;20100;-37
2023/05/05 02:12:14;;;;;;;11.23;7.88;;;11.10;99.90;;;;;;4993503;28;20125;-37
2023/05/05 02:14:41;;;;;;;11.40;7.65;;;11.10;99.90;;;;;;5067840;28;20051;-36
2023/05/05 02:17:08;;;;;;;9.93;8.35;;;11.10;99.90;;;;;;5095939;28;20039;-37
2023/05/05 02:19:39;;;;;;;11.32;7.93;;;11.00;99.90;;;;;;5078026;28;20572;-37
2023/05/05 02:22:05;;;;;;;13.93;8.77;;;11.00;99.90;;;;;;5096529;28;20470;-37
2023/05/05 02:24:31;;;;;;;10.80;8.23;;;11.00;99.90;;;;;;5095623;28;20047;-38
2023/05/05 02:26:58;;;;;;;13.52;8.07;;;11.00;99.90;;;;;;5094939;28;20048;-34
2023/05/05 02:29:36;;;;;;;11.20;8.02;;;11.00;99.90;;;;;;5080088;28;20043;-37
2023/05/05 02:32:11;;;;;;;11.05;8.77;;;11.00;99.90;;;;;;5096367;28;20047;-34
2023/05/05 02:34:39;;;;;;;11.07;8.75;;;11.00;99.90;;;;;;5095773;28;20552;-40
2023/05/05 02:37:08;;;;;;;11.32;8.38;;;11.00;99.90;;;;;;5091988;28;20505;-39
2023/05/05 02:39:57;;;;;;;12.05;8.57;;;11.00;99.90;;;;;;5102644;27;20168;-34
2023/05/05 02:42:26;;;;;;;11.65;9.27;;;11.00;99.90;;;;;;5088178;28;20043;-36
2023/05/05 02:44:56;;;;;;;11.65;9.23;;;10.90;99.90;;;;;;5099632;28;20035;-35
2023/05/05 02:47:26;;;;;;;11.85;8.77;;;10.90;99.90;;;;;;5100131;28;20481;-35
2023/05/05 02:49:52;;;;;;;14.65;10.13;;;10.90;99.90;;;;;;5100292;28;20562;-35
2023/05/05 02:52:18;;;;;;;13.30;9.07;;;10.90;99.90;;;;;;5099679;28;20035;-34
2023/05/05 02:54:43;;;;;;;11.73;8.23;;;10.90;99.90;;;;;;5099342;28;20043;-36
2023/05/05 02:57:12;;;;;;;11.65;9.40;;;10.90;99.90;;;;;;5099115;28;20108;-36
2023/05/05 02:59:52;;;;;;;14.70;9.13;;;10.90;99.90;;;;;;5098318;28;20539;-35
2023/05/05 03:02:34;;;;;;;11.85;9.93;;;11.00;99.90;;;;;;5099838;27;20051;-39
2023/05/05 03:05:05;;;;;;;11.63;10.32;;;11.00;99.90;;;;;;5099722;28;20043;-39
2023/05/05 03:07:55;;;;;;;14.77;10.40;;;11.00;99.90;;;;;;5081360;28;20431;-42
2023/05/05 03:10:28;;;;;;;14.57;10.00;;;11.00;99.90;;;;;;5082788;28;20035;-35
2023/05/05 03:12:57;;;;;;;14.40;10.80;;;11.00;99.90;;;;;;5081881;28;20214;-37
2023/05/05 03:15:43;;;;;;;16.45;10.98;;;11.00;99.90;;;;;;5099367;28;20044;-36
2023/05/05 03:18:10;;;;;;;15.38;11.23;;;11.00;99.90;;;;;;5085829;28;20462;-36
2023/05/05 03:20:39;;;;;;;13.98;10.85;;;11.00;99.90;;;;;;5114669;27;20090;-41
2023/05/05 03:23:05;;;;;;;15.63;11.38;;;11.00;99.90;;;;;;5085722;28;20465;-36
2023/05/05 03:25:47;;;;;;;13.82;11.85;;;11.00;99.90;;;;;;5098700;28;20122;-37
2023/05/05 03:28:14;;;;;;;18.02;12.45;;;11.10;99.90;;;;;;5097506;28;20466;-37
2023/05/05 03:30:41;;;;;;;17.63;12.85;;;11.10;99.90;;;;;;5085640;28;20042;-37
2023/05/05 03:33:08;;;;;;;18.10;11.98;;;11.00;99.90;;;;;;5099580;28;20105;-40
2023/05/05 03:35:34;;;;;;;14.90;11.80;;;11.00;99.90;;;;;;5099499;28;20115;-37
2023/05/05 03:38:00;;;;;;;18.30;12.60;;;11.00;99.90;;;;;;5097445;28;20052;-38
2023/05/05 03:40:25;;;;;;;14.95;13.30;;;10.90;99.90;;;;;;5098493;28;20155;-35
2023/05/05 03:42:51;;;;;;;16.45;13.82;;;10.90;99.90;;;;;;5099226;28;20444;-33
2023/05/05 03:45:17;;;;;;;20.48;13.60;;;10.90;99.90;;;;;;5081739;28;20514;-37
2023/05/05 03:47:42;;;;;;;16.75;13.02;;;10.80;99.90;;;;;;5098422;28;20040;-38
2023/05/05 03:50:08;;;;;;;14.10;12.10;;;10.80;99.90;;;;;;5098018;28;20043;-36
2023/05/05 03:52:34;;;;;;;17.42;12.73;;;10.70;99.90;;;;;;5098390;28;20115;-40
2023/05/05 03:55:00;;;;;;;17.88;13.80;;;10.70;99.90;;;;;;5079708;28;20605;-38
2023/05/05 03:57:26;;;;;;;18.67;13.85;;;10.70;99.90;;;;;;5080747;28;20444;-36
2023/05/05 03:59:52;;;;;;;20.48;14.80;;;10.60;99.90;;;;;;5098877;28;20046;-41
2023/05/05 04:02:18;;;;;;;19.23;12.63;;;10.60;99.90;;;;;;5097877;28;20072;-38
2023/05/05 04:04:44;;;;;;;15.82;14.13;;;10.50;99.90;;;;;;5079092;28;20622;-38
2023/05/05 04:07:10;;;;;;;26.23;17.17;;;10.50;99.90;;;;;;5096755;28;20095;-34
2023/05/05 04:09:37;;;;;;;18.75;15.95;;;10.40;99.90;;;;;;5098613;28;20075;-38
2023/05/05 04:12:04;;;;;;;20.52;17.15;;;10.40;99.90;;;;;;5098379;28;20092;-46
2023/05/05 04:14:29;;;;;;;23.73;16.83;;;10.30;99.90;;;;;;5097812;28;20083;-39
2023/05/05 04:16:55;;;;;;;25.25;17.85;;;10.20;99.90;;;;;;5080702;28;20089;-39
2023/05/05 04:19:20;;;;;;;21.65;18.40;;;10.20;99.90;;;;;;5098685;28;20032;-38
2023/05/05 04:21:46;;;;;;;21.02;16.45;;;10.20;99.90;;;;;;5098649;28;20508;-35
2023/05/05 04:24:12;;;;;;;24.88;17.42;;;10.20;99.90;;;;;;5097720;28;20373;-36
2023/05/05 04:26:37;;;;;;;23.15;16.10;;;10.20;99.90;;;;;;5097989;28;20039;-39
2023/05/05 04:29:03;;;;;;;21.27;14.95;;;10.20;99.90;;;;;;5113427;27;20059;-36
2023/05/05 04:31:30;;;;;;;15.30;13.80;;;10.20;99.90;;;;;;5098253;28;20439;-42
2023/05/05 04:33:56;;;;;;;19.10;15.35;;;10.20;99.90;;;;;;5097489;28;20453;-35
2023/05/05 04:36:22;;;;;;;19.70;17.17;;;10.30;99.90;;;;;;5113105;27;20055;-36
2023/05/05 04:38:47;;;;;;;19.83;17.05;;;10.30;99.90;;;;;;5097934;28;20714;-39
2023/05/05 04:41:13;;;;;;;18.83;16.35;;;10.20;99.90;;;;;;5079270;28;20405;-37
2023/05/05 04:43:38;;;;;;;21.98;18.17;;;10.20;99.90;;;;;;5097256;28;20059;-38
2023/05/05 04:46:04;;;;;;;20.83;18.63;;;10.20;99.90;;;;;;5098538;28;20051;-39
2023/05/05 04:48:30;;;;;;;26.05;18.88;;;10.20;99.90;;;;;;5079015;28;20069;-38
2023/05/05 04:50:55;;;;;;;22.42;18.75;;;10.20;99.90;;;;;;5098337;28;20196;-37
2023/05/05 04:53:21;;;;;;;24.38;20.05;;;10.20;99.90;;;;;;5096727;28;20036;-37
2023/05/05 04:55:47;;;;;;;27.38;19.85;;;10.10;99.90;;;;;;5090615;28;20131;-37
2023/05/05 04:58:12;;;;;;;20.60;18.42;;;10.10;99.90;;;;;;5097104;28;20055;-37
2023/05/05 05:00:38;;;;;;;22.13;19.25;;;10.10;99.90;;;;;;5097966;28;20050;-35
2023/05/05 05:03:04;;;;;;;21.73;19.42;;;10.20;99.90;;;;;;5097349;28;20051;-39
2023/05/05 05:05:29;;;;;;;25.17;18.88;;;10.20;99.90;;;;;;5097169;28;20561;-41
2023/05/05 05:07:55;;;;;;;20.90;18.25;;;10.20;99.90;;;;;;5078581;28;20078;-43
2023/05/05 05:10:20;;;;;;;20.77;18.58;;;10.30;99.90;;;;;;5097670;28;20161;-37
2023/05/05 05:12:47;;;;;;;24.80;21.75;;;10.40;99.90;;;;;;5096129;28;20051;-37
2023/05/05 05:15:13;;;;;;;23.90;20.48;;;10.70;99.90;;;;;;5097831;28;20040;-38
2023/05/05 05:17:38;;;;;;;23.67;19.52;;;11.10;99.90;;;;;;5097507;28;20101;-38
2023/05/05 05:20:05;;;;;;;21.20;19.05;;;11.20;99.90;;;;;;5097816;28;20044;-38
2023/05/05 05:22:31;;;;;;;23.55;18.02;;;11.20;99.90;;;;;;5097018;28;20044;-37
2023/05/05 05:24:57;;;;;;;20.05;17.92;;;11.20;99.90;;;;;;5096975;28;20047;-37
2023/05/05 05:27:22;;;;;;;20.63;18.55;;;11.10;99.90;;;;;;5096335;28;20104;-34
2023/05/05 05:29:48;;;;;;;21.33;19.08;;;11.10;99.90;;;;;;5097244;28;20044;-37
2023/05/05 05:32:14;;;;;;;21.63;18.02;;;11.10;99.90;;;;;;5097455;28;20047;-36
2023/05/05 05:34:40;;;;;;;19.30;17.25;;;11.10;99.90;;;;;;5096132;28;20052;-39
2023/05/05 05:37:05;;;;;;;23.92;20.85;;;11.10;99.90;;;;;;5096780;28;20144;-39
2023/05/05 05:39:31;;;;;;;19.55;17.50;;;12.00;99.90;;;;;;5097753;28;20031;-40
2023/05/05 05:41:57;;;;;;;19.17;17.10;;;12.50;99.90;;;;;;5093441;28;20483;-39
2023/05/05 05:44:22;;;;;;;21.02;17.35;;;12.50;99.90;;;;;;5085740;28;20050;-40
2023/05/05 05:46:48;;;;;;;21.33;19.27;;;12.50;99.90;;;;;;5095815;28;20387;-35
2023/05/05 05:49:15;;;;;;;22.17;19.83;;;12.80;99.90;;;;;;5096974;28;20073;-41
2023/05/05 05:51:40;;;;;;;18.08;16.17;;;14.20;99.90;;;;;;5080314;28;21900;-39
2023/05/05 05:54:06;;;;;;;14.75;13.27;;;15.30;99.90;;;;;;5095714;28;20047;-43
2023/05/05 05:56:32;;;;;;;14.95;13.27;;;15.60;99.90;;;;;;5096435;28;20076;-44
2023/05/05 05:58:57;;;;;;;14.88;13.43;;;15.40;99.90;;;;;;5078778;28;20165;-37
2023/05/05 06:01:23;;;;;;;15.07;13.57;;;15.30;99.90;;;;;;5096846;28;20197;-37
2023/05/05 06:03:49;;;;;;;15.48;14.00;;;15.60;99.90;;;;;;5096050;28;20487;-43
2023/05/05 06:06:14;;;;;;;16.35;13.55;;;16.50;99.90;;;;;;5106918;27;20339;-37
2023/05/05 06:08:40;;;;;;;14.20;12.73;;;17.30;99.90;;;;;;5102338;27;20170;-39
2023/05/05 06:11:06;;;;;;;12.98;11.63;;;18.80;99.90;;;;;;5098518;27;20084;-39
2023/05/05 06:13:31;;;;;;;13.13;11.68;;;20.20;99.90;;;;;;5096811;27;20594;-38
2023/05/05 06:15:57;;;;;;;13.13;11.15;;;21.70;99.90;;;;;;5100550;27;20039;-39
2023/05/05 06:18:22;;;;;;;13.63;12.13;;;22.90;99.90;;;;;;5098264;27;20054;-41
2023/05/05 06:20:49;;;;;;;13.00;11.57;;;23.70;99.90;;;;;;5106450;27;20416;-36
2023/05/05 06:23:15;;;;;;;13.68;11.50;;;24.80;99.90;;;;;;5113281;27;20035;-42
2023/05/05 06:25:41;;;;;;;11.88;10.73;;;25.60;99.90;;;;;;5095482;28;20416;-38
2023/05/05 06:28:07;;;;;;;12.20;10.35;;;25.70;99.90;;;;;;5104779;28;20439;-40
2023/05/05 06:30:32;;;;;;;15.43;11.07;;;26.50;99.90;;;;;;5104192;28;20458;-40
2023/05/05 06:32:58;;;;;;;11.52;10.50;;;27.00;99.90;;;;;;5093618;28;20407;-40
2023/05/05 06:35:24;;;;;;;12.48;10.52;;;27.10;99.90;;;;;;5103782;28;20047;-40
2023/05/05 06:37:50;;;;;;;16.10;11.77;;;27.20;99.90;;;;;;5109549;28;20480;-37
2023/05/05 06:40:16;;;;;;;12.77;11.40;;;26.80;98.90;;;;;;5099246;28;20860;-40
2023/05/05 06:42:41;;;;;;;12.05;10.95;;;26.60;99.70;;;;;;5066692;28;20058;-37
2023/05/05 06:45:08;;;;;;;12.15;10.63;;;25.60;99.40;;;;;;5099451;28;20079;-41
2023/05/05 06:47:33;;;;;;;11.05;10.00;;;24.50;99.90;;;;;;5082369;28;20047;-42
2023/05/05 06:49:59;;;;;;;13.20;11.13;;;24.40;99.90;;;;;;5094372;28;20059;-46
2023/05/05 06:52:25;;;;;;;11.57;10.60;;;24.50;99.90;;;;;;5094358;28;20051;-36
2023/05/05 06:54:50;;;;;;;12.40;11.30;;;25.10;99.90;;;;;;5109176;28;20077;-38
2023/05/05 06:57:16;;;;;;;11.43;10.38;;;25.20;99.90;;;;;;5101301;28;20716;-39
2023/05/05 06:59:42;;;;;;;11.93;10.82;;;25.60;99.70;;;;;;5111319;28;20039;-38
2023/05/05 07:02:07;;;;;;;12.45;11.25;;;25.70;99.90;;;;;;5113161;28;20378;-43
2023/05/05 07:04:33;;;;;;;11.90;10.70;;;24.80;99.80;;;;;;5109958;28;20043;-37
2023/05/05 07:06:59;;;;;;;14.77;12.18;;;23.90;99.90;;;;;;5105500;28;20051;-45
2023/05/05 07:09:24;;;;;;;13.68;12.15;;;23.20;99.90;;;;;;5105868;28;20050;-42
2023/05/05 07:11:50;;;;;;;12.75;11.45;;;23.00;99.90;;;;;;5105344;28;20047;-42
2023/05/05 07:14:16;;;;;;;12.75;11.68;;;23.00;99.90;;;;;;5096757;28;20035;-37
2023/05/05 07:16:41;;;;;;;13.70;11.20;;;23.00;99.90;;;;;;5099035;28;20582;-41
2023/05/05 07:19:07;;;;;;;14.25;12.90;;;23.00;99.90;;;;;;5110468;28;20382;-39
2023/05/05 07:21:33;;;;;;;14.60;13.10;;;22.80;99.90;;;;;;5098362;28;20447;-43
2023/05/05 07:23:59;;;;;;;13.50;12.20;;;22.50;99.90;;;;;;5095052;27;20071;-45
2023/05/05 07:26:25;;;;;;;13.63;12.15;;;22.50;99.90;;;;;;5114834;27;20400;-41
2023/05/05 07:28:51;;;;;;;14.88;13.20;;;22.40;99.90;;;;;;5109324;27;20622;-41
2023/05/05 07:31:20;;;;;;;14.27;12.77;;;22.30;99.90;;;;;;5093928;27;20055;-39
2023/05/05 07:33:47;;;;;;;14.30;12.80;;;21.90;99.90;;;;;;5104842;27;20160;-37
2023/05/05 07:36:12;;;;;;;14.93;13.45;;;21.60;99.90;;;;;;5107622;27;20039;-40
2023/05/05 07:38:38;;;;;;;14.77;13.55;;;21.30;99.90;;;;;;5102552;27;20104;-41
2023/05/05 07:41:04;;;;;;;18.98;13.95;;;21.00;99.90;;;;;;5098947;27;20036;-39
2023/05/05 07:43:30;;;;;;;17.45;14.88;;;20.80;99.90;;;;;;5109126;27;20130;-43
2023/05/05 07:45:55;;;;;;;18.60;13.55;;;20.50;99.90;;;;;;5096777;28;20440;-44
2023/05/05 07:48:21;;;;;;;15.20;13.68;;;20.50;99.90;;;;;;5110280;27;20428;-38
2023/05/05 07:50:47;;;;;;;18.05;14.55;;;20.50;99.90;;;;;;5089185;28;20043;-36
2023/05/05 07:53:12;;;;;;;16.80;15.23;;;20.40;99.90;;;;;;5103632;27;20386;-38
2023/05/05 07:55:38;;;;;;;17.45;15.80;;;20.10;99.90;;;;;;5114290;27;20047;-36
2023/05/05 07:58:04;;;;;;;16.67;14.35;;;19.90;99.90;;;;;;5099844;27;20039;-45
2023/05/05 08:00:29;;;;;;;16.40;15.00;;;20.00;99.90;;;;;;5101349;27;20035;-42
2023/05/05 08:02:55;;;;;;;17.60;15.73;;;20.00;99.90;;;;;;5101508;27;20063;-39
2023/05/05 08:05:21;;;;;;;17.30;15.48;;;20.00;99.90;;;;;;5096763;28;20198;-39
2023/05/05 08:07:46;;;;;;;18.88;16.80;;;19.90;99.90;;;;;;5107838;27;20405;-45
2023/05/05 08:10:12;;;;;;;18.17;16.25;;;19.60;99.90;;;;;;5097479;27;20482;-40
2023/05/05 08:12:38;;;;;;;18.52;16.58;;;19.50;99.90;;;;;;5095556;27;20153;-36
2023/05/05 08:15:04;;;;;;;21.95;17.10;;;19.30;99.90;;;;;;5095386;28;20039;-41
2023/05/05 08:17:49;;;;;;;20.98;18.85;;;19.30;99.90;;;;;;5094760;27;20036;-43
2023/05/05 08:20:16;;;;;;;20.05;18.02;;;19.20;99.90;;;;;;5098018;27;20047;-38
2023/05/05 08:22:41;;;;;;;20.27;18.15;;;19.30;99.90;;;;;;5098075;27;20496;-41
2023/05/05 08:25:09;;;;;;;20.98;19.23;;;19.40;99.90;;;;;;5097892;27;20052;-39
2023/05/05 08:27:37;;;;;;;22.73;20.42;;;19.40;99.90;;;;;;5103880;27;20051;-41
2023/05/05 08:30:03;;;;;;;23.55;21.13;;;19.30;99.90;;;;;;5106565;27;20035;-38
2023/05/05 08:32:29;;;;;;;24.40;22.02;;;19.20;99.90;;;;;;5087160;28;20418;-42
2023/05/05 08:34:55;;;;;;;24.23;21.63;;;19.20;99.90;;;;;;5106410;27;20035;-43
2023/05/05 08:37:21;;;;;;;26.48;22.55;;;19.20;99.90;;;;;;5100350;27;20145;-41
2023/05/05 08:39:46;;;;;;;24.85;22.02;;;19.20;99.90;;;;;;5116317;27;20039;-38
2023/05/05 08:42:12;;;;;;;21.40;19.42;;;19.40;99.90;;;;;;5109211;27;20464;-43
2023/05/05 08:44:38;;;;;;;25.67;21.65;;;19.50;99.90;;;;;;5102651;27;20102;-39
2023/05/05 08:47:04;;;;;;;27.00;24.00;;;19.70;99.90;;;;;;5112981;27;20108;-38
2023/05/05 08:49:40;;;;;;;25.60;22.73;;;19.70;99.90;;;;;;5102636;27;20686;-38
2023/05/05 08:52:08;;;;;;;24.65;22.17;;;20.00;99.90;;;;;;5112777;27;20075;-42
2023/05/05 08:54:36;;;;;;;25.13;22.55;;;20.10;99.90;;;;;;5113421;27;20118;-37
2023/05/05 08:57:06;;;;;;;25.77;22.35;;;20.20;99.90;;;;;;5103442;27;20043;-41
2023/05/05 08:59:34;;;;;;;25.13;22.55;;;20.20;99.90;;;;;;5095426;28;20293;-40
2023/05/05 09:02:01;;;;;;;23.80;21.25;;;20.30;99.90;;;;;;5112763;27;20119;-43
2023/05/05 09:04:27;;;;;;;25.10;20.77;;;20.60;99.90;;;;;;5104513;27;20103;-36
2023/05/05 09:06:57;;;;;;;21.80;19.60;;;20.50;99.90;;;;;;5093794;28;20513;-37
2023/05/05 09:09:22;;;;;;;22.42;19.52;;;20.60;99.90;;;;;;5111502;27;20051;-40
2023/05/05 09:11:51;;;;;;;23.83;21.42;;;20.80;99.90;;;;;;5112699;27;20653;-46
2023/05/05 09:14:17;;;;;;;24.50;21.90;;;20.80;99.90;;;;;;5099914;27;20046;-36
2023/05/05 09:16:43;;;;;;;22.73;20.58;;;20.90;99.90;;;;;;5105792;27;20043;-39
2023/05/05 09:19:08;;;;;;;25.55;21.48;;;21.00;99.90;;;;;;5095629;27;20040;-40
2023/05/05 09:21:38;;;;;;;27.35;23.33;;;21.20;99.90;;;;;;5112471;27;20039;-39
2023/05/05 09:24:12;;;;;;;22.15;19.88;;;21.30;99.90;;;;;;5097359;27;20039;-43
2023/05/05 09:26:47;;;;;;;18.33;16.40;;;21.70;99.90;;;;;;5094794;27;20509;-37
2023/05/05 09:29:19;;;;;;;22.85;17.05;;;21.80;99.90;;;;;;5085217;27;20079;-41
2023/05/05 09:32:07;;;;;;;20.20;17.67;;;21.80;99.90;;;;;;5086760;28;20036;-40
2023/05/05 09:34:34;;;;;;;22.23;17.45;;;21.70;99.90;;;;;;5085158;28;20046;-36
2023/05/05 09:37:00;;;;;;;21.05;18.30;;;21.90;99.90;;;;;;5096024;28;20066;-44
2023/05/05 09:39:25;;;;;;;19.17;17.08;;;21.90;99.90;;;;;;5090730;28;20078;-41
2023/05/05 09:41:51;;;;;;;18.00;16.23;;;21.90;99.90;;;;;;5096685;28;20067;-43
2023/05/05 09:44:35;;;;;;;15.13;13.63;;;22.00;99.90;;;;;;5094655;28;20054;-36
2023/05/05 09:47:01;;;;;;;17.00;14.25;;;22.20;99.90;;;;;;5095578;28;20426;-38
2023/05/05 09:49:29;;;;;;;15.50;12.52;;;22.20;99.90;;;;;;5097243;28;20123;-37
2023/05/05 09:51:55;;;;;;;14.32;11.40;;;22.00;99.90;;;;;;5096393;28;20109;-43
2023/05/05 09:54:29;;;;;;;13.27;11.55;;;21.90;99.90;;;;;;5096103;28;20051;-37
2023/05/05 09:56:56;;;;;;;13.75;11.90;;;21.90;99.90;;;;;;5095883;28;20468;-43
2023/05/05 09:59:22;;;;;;;14.68;12.38;;;21.80;99.90;;;;;;5096081;28;20054;-39
2023/05/05 10:01:49;;;;;;;15.15;13.07;;;21.80;99.90;;;;;;5092601;28;20078;-36
2023/05/05 10:04:25;;;;;;;15.40;12.18;;;21.60;99.90;;;;;;5095157;28;20058;-43
2023/05/05 10:06:51;;;;;;;14.85;12.40;;;21.60;99.90;;;;;;5092711;27;20713;-42
2023/05/05 10:09:16;;;;;;;15.23;12.20;;;21.60;99.90;;;;;;5095102;28;20096;-41
2023/05/05 10:11:45;;;;;;;12.55;10.43;;;21.50;99.90;;;;;;5095536;28;20690;-44
2023/05/05 10:14:16;;;;;;;9.95;8.45;;;21.60;99.90;;;;;;5076316;28;20124;-42
2023/05/05 10:16:47;;;;;;;10.57;7.17;;;21.60;99.90;;;;;;5095064;28;20058;-45
2023/05/05 10:19:15;;;;;;;19.05;7.30;;;21.50;99.90;;;;;;5091669;28;20043;-38
2023/05/05 10:21:50;;;;;;;10.80;7.28;;;21.40;99.90;;;;;;5094996;28;20055;-43
2023/05/05 10:24:27;;;;;;;10.55;8.95;;;21.30;99.90;;;;;;5075815;28;20086;-44
2023/05/05 10:26:55;;;;;;;8.57;7.70;;;21.30;99.90;;;;;;5095118;28;20090;-41
2023/05/05 10:29:44;;;;;;;11.35;9.10;;;21.40;99.90;;;;;;5089538;28;20047;-42
2023/05/05 10:32:30;;;;;;;12.45;9.20;;;21.60;99.90;;;;;;5080729;28;20055;-38
2023/05/05 10:34:57;;;;;;;10.38;8.93;;;21.80;99.90;;;;;;5094889;28;20552;-40
2023/05/05 10:37:22;;;;;;;11.98;10.00;;;21.80;99.90;;;;;;5103959;28;20119;-40
2023/05/05 10:39:49;;;;;;;13.38;10.20;;;21.80;99.90;;;;;;5095334;28;20042;-39
2023/05/05 10:42:17;;;;;;;12.30;10.38;;;21.80;99.90;;;;;;5093234;28;20044;-41
2023/05/05 10:44:43;;;;;;;12.90;11.52;;;21.80;99.90;;;;;;5095048;28;20050;-39
2023/05/05 10:47:09;;;;;;;14.60;12.77;;;21.80;99.90;;;;;;5092578;28;20048;-38
2023/05/05 10:49:41;;;;;;;17.50;11.90;;;22.00;99.90;;;;;;5094755;28;20613;-45
2023/05/05 10:52:38;;;;;;;15.95;13.20;;;22.00;99.90;;;;;;5094931;28;20081;-45
2023/05/05 10:55:30;;;;;;;15.73;13.18;;;22.00;99.90;;;;;;5095658;28;20592;-38
2023/05/05 10:57:55;;;;;;;14.85;13.23;;;21.80;99.90;;;;;;5096432;28;20047;-42
2023/05/05 11:00:39;;;;;;;16.63;14.27;;;21.80;99.90;;;;;;5100447;28;20394;-38
2023/05/05 11:03:17;;;;;;;16.30;14.52;;;21.70;99.90;;;;;;5099954;28;20137;-36
2023/05/05 11:06:06;;;;;;;16.55;14.80;;;21.70;99.90;;;;;;5099932;28;20047;-44
2023/05/05 11:08:34;;;;;;;17.30;14.98;;;21.60;99.90;;;;;;5087517;28;20464;-40
2023/05/05 11:11:01;;;;;;;17.55;15.23;;;21.50;99.90;;;;;;5099641;28;20043;-44
2023/05/05 11:13:28;;;;;;;17.58;15.77;;;21.50;99.90;;;;;;5099603;28;20508;-36
2023/05/05 11:15:55;;;;;;;20.60;16.02;;;21.70;99.90;;;;;;5099822;28;20043;-36
2023/05/05 11:18:43;;;;;;;17.50;15.65;;;21.80;99.90;;;;;;5097747;28;20059;-36
2023/05/05 11:21:14;;;;;;;17.80;15.95;;;21.80;99.90;;;;;;5079228;28;20496;-36
2023/05/05 11:23:51;;;;;;;20.00;16.27;;;21.60;99.90;;;;;;5096974;28;20387;-42
2023/05/05 11:26:39;;;;;;;16.20;14.38;;;21.50;99.90;;;;;;5066086;28;20063;-40
2023/05/05 11:29:05;;;;;;;18.77;16.77;;;21.50;99.90;;;;;;5097241;28;20082;-43
2023/05/05 11:31:32;;;;;;;19.27;17.20;;;21.40;99.90;;;;;;5097949;28;20409;-40
2023/05/05 11:34:33;;;;;;;19.08;17.20;;;21.40;99.90;;;;;;5098070;28;20112;-42
2023/05/05 11:37:06;;;;;;;17.30;15.55;;;21.20;99.90;;;;;;5034133;28;20099;-49
2023/05/05 11:39:44;;;;;;;18.70;16.70;;;21.20;99.90;;;;;;5029992;28;20100;-40
2023/05/05 11:42:23;;;;;;;19.40;16.17;;;21.20;99.90;;;;;;5034574;28;20055;-43
2023/05/05 11:44:50;;;;;;;15.63;13.90;;;21.10;99.90;;;;;;5034815;28;20060;-39
2023/05/05 11:47:15;;;;;;;14.32;12.18;;;21.00;99.90;;;;;;5034111;28;20049;-42
2023/05/05 11:49:41;;;;;;;13.57;12.15;;;20.70;99.90;;;;;;5034432;28;20085;-40
2023/05/05 11:52:09;;;;;;;14.93;11.50;;;20.50;99.90;;;;;;4997974;28;20057;-41
2023/05/05 11:54:36;;;;;;;12.80;11.10;;;20.30;99.90;;;;;;5028303;28;20592;-41
2023/05/05 11:57:09;;;;;;;11.45;10.25;;;20.10;99.90;;;;;;5028246;28;20436;-42
2023/05/05 11:59:56;;;;;;;10.98;8.32;;;20.00;99.90;;;;;;5029656;28;20056;-43
2023/05/05 12:02:22;;;;;;;9.63;6.97;;;19.80;99.90;;;;;;5014651;28;20049;-38
2023/05/05 12:04:49;;;;;;;9.32;4.88;;;19.60;99.90;;;;;;5032229;28;20756;-37
2023/05/05 12:07:20;;;;;;;6.78;5.95;;;19.50;99.90;;;;;;5030354;28;20053;-42
2023/05/05 12:09:47;;;;;;;8.82;5.75;;;19.30;99.90;;;;;;5028906;28;20511;-41
2023/05/05 12:12:14;;;;;;;9.10;5.90;;;19.10;99.90;;;;;;5096122;28;20089;-39
2023/05/05 12:14:51;;;;;;;10.00;6.32;;;19.00;99.90;;;;;;5097493;28;20166;-39
2023/05/05 12:17:19;;;;;;;7.53;6.35;;;18.80;99.90;;;;;;5097455;28;20164;-37
2023/05/05 12:19:51;;;;;;;10.48;6.88;;;18.60;99.90;;;;;;5098148;28;20409;-39
2023/05/05 12:22:25;;;;;;;8.45;6.53;;;18.40;99.90;;;;;;5097134;28;20051;-42
2023/05/05 12:25:00;;;;;;;8.73;7.82;;;18.20;99.90;;;;;;5068756;28;20047;-43
2023/05/05 12:27:43;;;;;;;10.95;8.20;;;18.00;99.90;;;;;;5097351;28;20047;-41
2023/05/05 12:30:11;;;;;;;10.27;8.93;;;17.80;99.90;;;;;;5098242;28;20508;-37
2023/05/05 12:32:38;;;;;;;12.10;8.23;;;17.60;99.90;;;;;;5096993;28;20113;-42
2023/05/05 12:35:05;;;;;;;14.80;8.80;;;17.60;99.90;;;;;;5098493;28;20124;-41
2023/05/05 12:37:31;;;;;;;11.10;8.77;;;17.40;99.90;;;;;;5112265;27;20391;-44
2023/05/05 12:39:57;;;;;;;12.82;8.18;;;17.20;99.90;;;;;;5097420;28;20070;-38